sensor_id;sensor_type;location;lat;lon;timestamp;pressure;altitude;pressure_sealevel;temperature;humidity
28344;BME280;15597;50.914;6.638;2023-03-14T00:01:23;98384.28;;;14.17;58.66
28344;BME280;15597;50.914;6.638;2023-03-14T00:03:50;98377.56;;;14.13;58.51
28344;BME280;15597;50.914;6.638;2023-03-14T00:06:16;98381.34;;;14.09;58.88
28344;BME280;15597;50.914;6.638;2023-03-14T00:08:43;98395.66;;;14.05;58.93
28344;BME280;15597;50.914;6.638;2023-03-14T00:11:11;98396.84;;;14.01;58.86
28344;BME280;15597;50.914;6.638;2023-03-14T00:13:38;98396.09;;;13.99;58.92
28344;BME280;15597;50.914;6.638;2023-03-14T00:16:05;98431.22;;;13.98;58.75
28344;BME280;15597;50.914;6.638;2023-03-14T00:18:32;98440.06;;;13.97;59.20
28344;BME280;15597;50.914;6.638;2023-03-14T00:21:01;98458.56;;;13.95;58.83
28344;BME280;15597;50.914;6.638;2023-03-14T00:23:28;98466.38;;;13.97;58.83
28344;BME280;15597;50.914;6.638;2023-03-14T00:25:59;98468.47;;;13.92;59.07
28344;BME280;15597;50.914;6.638;2023-03-14T00:28:25;98470.16;;;13.93;59.46
28344;BME280;15597;50.914;6.638;2023-03-14T00:30:50;98465.72;;;13.93;59.27
28344;BME280;15597;50.914;6.638;2023-03-14T00:33:16;98455.19;;;13.93;59.24
28344;BME280;15597;50.914;6.638;2023-03-14T00:35:41;98450.59;;;13.97;59.16
28344;BME280;15597;50.914;6.638;2023-03-14T00:38:07;98452.28;;;13.98;59.06
28344;BME280;15597;50.914;6.638;2023-03-14T00:40:33;98453.94;;;13.99;58.80
28344;BME280;15597;50.914;6.638;2023-03-14T00:42:58;98457.41;;;13.99;59.00
28344;BME280;15597;50.914;6.638;2023-03-14T00:45:25;98461.09;;;13.97;58.97
28344;BME280;15597;50.914;6.638;2023-03-14T00:47:52;98477.81;;;13.96;59.39
28344;BME280;15597;50.914;6.638;2023-03-14T00:50:17;98481.50;;;13.93;59.74
28344;BME280;15597;50.914;6.638;2023-03-14T00:52:44;98480.88;;;13.90;59.75
28344;BME280;15597;50.914;6.638;2023-03-14T00:55:11;98485.84;;;13.81;59.99
28344;BME280;15597;50.914;6.638;2023-03-14T00:57:37;98513.44;;;13.74;60.84
28344;BME280;15597;50.914;6.638;2023-03-14T01:00:03;98512.19;;;13.67;61.46
28344;BME280;15597;50.914;6.638;2023-03-14T01:02:31;98510.91;;;13.59;61.81
28344;BME280;15597;50.914;6.638;2023-03-14T01:04:57;98488.63;;;13.52;61.91
28344;BME280;15597;50.914;6.638;2023-03-14T01:07:22;98482.84;;;13.47;62.33
28344;BME280;15597;50.914;6.638;2023-03-14T01:09:51;98482.31;;;13.42;62.18
28344;BME280;15597;50.914;6.638;2023-03-14T01:12:17;98472.84;;;13.39;62.51
28344;BME280;15597;50.914;6.638;2023-03-14T01:14:42;98467.78;;;13.36;62.11
28344;BME280;15597;50.914;6.638;2023-03-14T01:17:08;98475.75;;;13.35;62.33
28344;BME280;15597;50.914;6.638;2023-03-14T01:19:33;98468.81;;;13.34;62.45
28344;BME280;15597;50.914;6.638;2023-03-14T01:21:59;98467.13;;;13.33;62.33
28344;BME280;15597;50.914;6.638;2023-03-14T01:24:24;98453.06;;;13.34;62.38
28344;BME280;15597;50.914;6.638;2023-03-14T01:26:50;98439.94;;;13.34;62.32
28344;BME280;15597;50.914;6.638;2023-03-14T01:29:16;98433.66;;;13.36;62.15
28344;BME280;15597;50.914;6.638;2023-03-14T01:31:41;98424.69;;;13.39;61.95
28344;BME280;15597;50.914;6.638;2023-03-14T01:34:07;98430.69;;;13.41;62.00
28344;BME280;15597;50.914;6.638;2023-03-14T01:36:32;98429.69;;;13.43;61.82
28344;BME280;15597;50.914;6.638;2023-03-14T01:39:00;98426.19;;;13.43;61.88
28344;BME280;15597;50.914;6.638;2023-03-14T01:41:26;98426.19;;;13.43;62.00
28344;BME280;15597;50.914;6.638;2023-03-14T01:43:54;98427.25;;;13.40;61.63
28344;BME280;15597;50.914;6.638;2023-03-14T01:51:48;98417.13;;;13.21;61.92
28344;BME280;15597;50.914;6.638;2023-03-14T01:54:36;98409.88;;;13.12;62.19
28344;BME280;15597;50.914;6.638;2023-03-14T01:57:37;98403.88;;;13.10;62.15
28344;BME280;15597;50.914;6.638;2023-03-14T02:00:18;98408.41;;;13.08;62.44
28344;BME280;15597;50.914;6.638;2023-03-14T02:02:51;98406.59;;;13.08;62.61
28344;BME280;15597;50.914;6.638;2023-03-14T02:05:23;98413.53;;;13.09;62.81
28344;BME280;15597;50.914;6.638;2023-03-14T02:07:59;98414.38;;;13.10;62.39
28344;BME280;15597;50.914;6.638;2023-03-14T02:10:39;98410.81;;;13.11;62.27
28344;BME280;15597;50.914;6.638;2023-03-14T02:13:07;98397.69;;;13.11;62.52
28344;BME280;15597;50.914;6.638;2023-03-14T02:15:56;98395.88;;;13.11;62.20
28344;BME280;15597;50.914;6.638;2023-03-14T02:18:42;98396.94;;;13.09;62.26
28344;BME280;15597;50.914;6.638;2023-03-14T02:21:38;98409.53;;;13.04;62.58
28344;BME280;15597;50.914;6.638;2023-03-14T02:24:14;98414.78;;;13.04;62.34
28344;BME280;15597;50.914;6.638;2023-03-14T02:27:07;98407.84;;;13.03;62.34
28344;BME280;15597;50.914;6.638;2023-03-14T02:29:36;98400.50;;;13.08;62.46
28344;BME280;15597;50.914;6.638;2023-03-14T02:32:05;98386.44;;;13.09;62.18
28344;BME280;15597;50.914;6.638;2023-03-14T02:34:32;98386.44;;;13.09;62.21
28344;BME280;15597;50.914;6.638;2023-03-14T02:37:00;98391.69;;;13.09;62.09
28344;BME280;15597;50.914;6.638;2023-03-14T02:39:35;98378.78;;;13.06;61.94
28344;BME280;15597;50.914;6.638;2023-03-14T02:42:02;98374.25;;;13.08;61.94
28344;BME280;15597;50.914;6.638;2023-03-14T02:44:28;98368.16;;;13.07;61.87
28344;BME280;15597;50.914;6.638;2023-03-14T02:46:53;98377.84;;;13.07;61.95
28344;BME280;15597;50.914;6.638;2023-03-14T02:49:19;98377.84;;;13.07;62.29
28344;BME280;15597;50.914;6.638;2023-03-14T02:51:45;98367.34;;;13.07;62.24
28344;BME280;15597;50.914;6.638;2023-03-14T02:54:12;98366.38;;;13.08;62.58
28344;BME280;15597;50.914;6.638;2023-03-14T02:56:40;98365.44;;;13.09;62.16
28344;BME280;15597;50.914;6.638;2023-03-14T02:59:06;98355.75;;;13.09;61.85
28344;BME280;15597;50.914;6.638;2023-03-14T03:01:47;98363.56;;;13.11;61.86
28344;BME280;15597;50.914;6.638;2023-03-14T03:04:13;98355.75;;;13.09;61.81
28344;BME280;15597;50.914;6.638;2023-03-14T03:06:38;98358.31;;;13.11;62.01
28344;BME280;15597;50.914;6.638;2023-03-14T03:09:04;98361.66;;;13.13;61.88
28344;BME280;15597;50.914;6.638;2023-03-14T03:11:29;98351.03;;;13.14;61.88
28344;BME280;15597;50.914;6.638;2023-03-14T03:13:57;98350.09;;;13.15;61.70
28344;BME280;15597;50.914;6.638;2023-03-14T03:16:22;98345.69;;;13.16;61.84
28344;BME280;15597;50.914;6.638;2023-03-14T03:18:48;98342.13;;;13.17;61.99
28344;BME280;15597;50.914;6.638;2023-03-14T03:21:14;98342.13;;;13.17;61.89
28344;BME280;15597;50.914;6.638;2023-03-14T03:23:42;98345.50;;;13.19;61.74
28344;BME280;15597;50.914;6.638;2023-03-14T03:26:09;98342.00;;;13.19;61.84
28344;BME280;15597;50.914;6.638;2023-03-14T03:28:36;98340.25;;;13.19;61.55
28344;BME280;15597;50.914;6.638;2023-03-14T03:31:11;98345.69;;;13.16;61.80
28344;BME280;15597;50.914;6.638;2023-03-14T03:33:38;98348.94;;;13.20;61.99
28344;BME280;15597;50.914;6.638;2023-03-14T03:36:04;98345.28;;;13.22;61.68
28344;BME280;15597;50.914;6.638;2023-03-14T03:38:34;98344.41;;;13.22;61.84
28344;BME280;15597;50.914;6.638;2023-03-14T03:41:06;98346.31;;;13.20;61.55
28344;BME280;15597;50.914;6.638;2023-03-14T03:43:32;98349.06;;;13.18;62.02
28344;BME280;15597;50.914;6.638;2023-03-14T03:46:03;98339.59;;;13.15;62.07
28344;BME280;15597;50.914;6.638;2023-03-14T03:48:30;98338.75;;;13.15;61.93
28344;BME280;15597;50.914;6.638;2023-03-14T03:50:55;98334.34;;;13.15;62.00
28344;BME280;15597;50.914;6.638;2023-03-14T03:53:22;98341.38;;;13.15;62.06
28344;BME280;15597;50.914;6.638;2023-03-14T03:55:48;98341.47;;;13.13;62.26
28344;BME280;15597;50.914;6.638;2023-03-14T03:58:13;98329.41;;;13.11;62.36
28344;BME280;15597;50.914;6.638;2023-03-14T04:00:39;98333.94;;;13.09;62.29
28344;BME280;15597;50.914;6.638;2023-03-14T04:03:05;98334.97;;;13.06;62.50
28344;BME280;15597;50.914;6.638;2023-03-14T04:05:30;98330.66;;;13.05;62.19
28344;BME280;15597;50.914;6.638;2023-03-14T04:08:03;98332.47;;;13.05;62.66
28344;BME280;15597;50.914;6.638;2023-03-14T04:10:30;98321.97;;;13.05;62.42
28344;BME280;15597;50.914;6.638;2023-03-14T04:13:04;98324.47;;;12.93;62.59
28344;BME280;15597;50.914;6.638;2023-03-14T04:15:32;98334.13;;;12.93;62.84
28344;BME280;15597;50.914;6.638;2023-03-14T04:18:01;98330.66;;;12.92;63.20
28344;BME280;15597;50.914;6.638;2023-03-14T04:20:27;98328.78;;;12.94;63.01
28344;BME280;15597;50.914;6.638;2023-03-14T04:22:53;98318.06;;;12.97;62.82
28344;BME280;15597;50.914;6.638;2023-03-14T04:25:18;98315.44;;;12.97;62.83
28344;BME280;15597;50.914;6.638;2023-03-14T04:27:50;98307.47;;;12.99;62.65
28344;BME280;15597;50.914;6.638;2023-03-14T04:30:20;98304.00;;;12.98;62.72
28344;BME280;15597;50.914;6.638;2023-03-14T04:33:06;98311.22;;;12.95;62.98
28344;BME280;15597;50.914;6.638;2023-03-14T04:35:36;98304.22;;;12.95;62.89
28344;BME280;15597;50.914;6.638;2023-03-14T04:38:06;98299.06;;;12.94;62.96
28344;BME280;15597;50.914;6.638;2023-03-14T04:40:33;98294.66;;;12.94;62.79
28344;BME280;15597;50.914;6.638;2023-03-14T04:43:03;98288.56;;;12.94;63.04
28344;BME280;15597;50.914;6.638;2023-03-14T04:45:30;98285.09;;;12.93;63.10
28344;BME280;15597;50.914;6.638;2023-03-14T04:47:58;98278.06;;;12.81;62.99
28344;BME280;15597;50.914;6.638;2023-03-14T04:50:23;98284.06;;;12.83;63.38
28344;BME280;15597;50.914;6.638;2023-03-14T04:52:49;98275.97;;;12.86;63.27
28344;BME280;15597;50.914;6.638;2023-03-14T04:55:15;98272.28;;;12.89;63.47
28344;BME280;15597;50.914;6.638;2023-03-14T04:57:41;98275.56;;;12.92;63.12
28344;BME280;15597;50.914;6.638;2023-03-14T05:00:09;98271.97;;;12.93;63.14
28344;BME280;15597;50.914;6.638;2023-03-14T05:02:45;98269.44;;;12.92;63.24
28344;BME280;15597;50.914;6.638;2023-03-14T05:05:20;98257.19;;;12.92;62.95
28344;BME280;15597;50.914;6.638;2023-03-14T05:08:05;98261.69;;;12.90;62.94
28344;BME280;15597;50.914;6.638;2023-03-14T05:10:37;98262.44;;;12.92;63.18
28344;BME280;15597;50.914;6.638;2023-03-14T05:13:35;98261.69;;;12.90;63.25
28344;BME280;15597;50.914;6.638;2023-03-14T05:16:22;98249.59;;;12.88;63.33
28344;BME280;15597;50.914;6.638;2023-03-14T05:19:06;98253.31;;;12.85;62.95
28344;BME280;15597;50.914;6.638;2023-03-14T05:21:50;98242.88;;;12.83;63.20
28344;BME280;15597;50.914;6.638;2023-03-14T05:24:31;98249.94;;;12.83;63.15
28344;BME280;15597;50.914;6.638;2023-03-14T05:26:59;98256.00;;;12.83;62.89
28344;BME280;15597;50.914;6.638;2023-03-14T05:29:33;98254.13;;;12.85;63.26
28344;BME280;15597;50.914;6.638;2023-03-14T05:32:19;98264.53;;;12.87;63.28
28344;BME280;15597;50.914;6.638;2023-03-14T05:34:53;98261.91;;;12.87;62.85
28344;BME280;15597;50.914;6.638;2023-03-14T05:37:34;98266.09;;;12.77;63.17
28344;BME280;15597;50.914;6.638;2023-03-14T05:40:15;98261.69;;;12.77;63.10
28344;BME280;15597;50.914;6.638;2023-03-14T05:43:05;98264.94;;;12.81;63.30
28344;BME280;15597;50.914;6.638;2023-03-14T05:45:55;98275.25;;;12.84;63.27
28344;BME280;15597;50.914;6.638;2023-03-14T05:48:30;98260.22;;;12.86;63.38
28344;BME280;15597;50.914;6.638;2023-03-14T05:51:15;98255.81;;;12.86;63.14
28344;BME280;15597;50.914;6.638;2023-03-14T05:54:00;98260.97;;;12.88;63.12
28344;BME280;15597;50.914;6.638;2023-03-14T05:56:44;98251.19;;;12.90;63.13
28344;BME280;15597;50.914;6.638;2023-03-14T05:59:16;98247.50;;;12.93;62.88
28344;BME280;15597;50.914;6.638;2023-03-14T06:02:08;98240.69;;;12.90;63.08
28344;BME280;15597;50.914;6.638;2023-03-14T06:04:45;98232.63;;;12.93;63.02
28344;BME280;15597;50.914;6.638;2023-03-14T06:07:11;98235.03;;;12.96;62.79
28344;BME280;15597;50.914;6.638;2023-03-14T06:09:38;98224.31;;;12.99;62.90
28344;BME280;15597;50.914;6.638;2023-03-14T06:12:05;98238.16;;;13.02;62.84
28344;BME280;15597;50.914;6.638;2023-03-14T06:14:37;98229.56;;;12.99;62.78
28344;BME280;15597;50.914;6.638;2023-03-14T06:17:03;98229.34;;;13.03;62.68
28344;BME280;15597;50.914;6.638;2023-03-14T06:19:35;98230.16;;;13.03;62.79
28344;BME280;15597;50.914;6.638;2023-03-14T06:22:01;98234.59;;;13.03;62.85
28344;BME280;15597;50.914;6.638;2023-03-14T06:24:27;98232.72;;;13.05;62.78
28344;BME280;15597;50.914;6.638;2023-03-14T06:26:53;98233.53;;;13.05;62.49
28344;BME280;15597;50.914;6.638;2023-03-14T06:29:18;98236.16;;;13.05;62.52
28344;BME280;15597;50.914;6.638;2023-03-14T06:31:44;98232.50;;;13.08;62.72
28344;BME280;15597;50.914;6.638;2023-03-14T06:34:14;98237.75;;;13.08;62.45
28344;BME280;15597;50.914;6.638;2023-03-14T06:36:39;98237.53;;;13.11;62.56
28344;BME280;15597;50.914;6.638;2023-03-14T06:39:05;98242.78;;;13.11;62.70
28344;BME280;15597;50.914;6.638;2023-03-14T06:41:33;98247.91;;;13.12;62.32
28344;BME280;15597;50.914;6.638;2023-03-14T06:43:59;98250.53;;;13.12;62.56
28344;BME280;15597;50.914;6.638;2023-03-14T06:46:26;98249.72;;;13.12;62.62
28344;BME280;15597;50.914;6.638;2023-03-14T06:48:52;98251.38;;;13.13;62.24
28344;BME280;15597;50.914;6.638;2023-03-14T06:51:19;98252.34;;;13.12;62.59
28344;BME280;15597;50.914;6.638;2023-03-14T06:53:45;98251.38;;;13.13;62.55
28344;BME280;15597;50.914;6.638;2023-03-14T06:56:14;98248.63;;;13.14;62.66
28344;BME280;15597;50.914;6.638;2023-03-14T06:58:39;98255.56;;;13.15;62.28
28344;BME280;15597;50.914;6.638;2023-03-14T07:01:18;98257.47;;;13.13;62.31
28344;BME280;15597;50.914;6.638;2023-03-14T07:03:45;98259.78;;;13.18;62.58
28344;BME280;15597;50.914;6.638;2023-03-14T07:06:11;98253.59;;;13.19;62.58
28344;BME280;15597;50.914;6.638;2023-03-14T07:08:36;98260.59;;;13.19;62.41
28344;BME280;15597;50.914;6.638;2023-03-14T07:11:03;98268.59;;;13.17;62.54
28344;BME280;15597;50.914;6.638;2023-03-14T07:13:29;98254.75;;;13.15;62.73
28344;BME280;15597;50.914;6.638;2023-03-14T07:16:05;98266.19;;;13.14;62.44
28344;BME280;15597;50.914;6.638;2023-03-14T07:18:32;98269.66;;;13.14;62.52
28344;BME280;15597;50.914;6.638;2023-03-14T07:20:58;98264.38;;;13.14;62.84
28344;BME280;15597;50.914;6.638;2023-03-14T07:23:23;98272.91;;;13.18;62.70
28344;BME280;15597;50.914;6.638;2023-03-14T07:25:51;98277.22;;;13.19;62.63
28344;BME280;15597;50.914;6.638;2023-03-14T07:28:19;98270.94;;;13.09;63.14
28344;BME280;15597;50.914;6.638;2023-03-14T07:30:47;98265.47;;;13.12;62.88
28344;BME280;15597;50.914;6.638;2023-03-14T07:33:20;98279.31;;;13.14;63.47
28344;BME280;15597;50.914;6.638;2023-03-14T07:35:49;98281.00;;;13.15;63.03
28344;BME280;15597;50.914;6.638;2023-03-14T07:38:16;98285.09;;;13.19;62.88
28344;BME280;15597;50.914;6.638;2023-03-14T07:41:04;98292.97;;;13.19;63.37
28344;BME280;15597;50.914;6.638;2023-03-14T07:43:33;98300.50;;;13.24;63.09
28344;BME280;15597;50.914;6.638;2023-03-14T07:46:00;98304.63;;;13.28;63.21
28344;BME280;15597;50.914;6.638;2023-03-14T07:48:26;98298.22;;;13.32;63.26
28344;BME280;15597;50.914;6.638;2023-03-14T07:50:54;98306.84;;;13.34;62.87
28344;BME280;15597;50.914;6.638;2023-03-14T07:53:20;98303.13;;;13.37;63.19
28344;BME280;15597;50.914;6.638;2023-03-14T07:55:47;98304.09;;;13.36;62.37
28344;BME280;15597;50.914;6.638;2023-03-14T07:58:13;98306.72;;;13.36;62.54
28344;BME280;15597;50.914;6.638;2023-03-14T08:00:39;98305.75;;;13.37;63.01
28344;BME280;15597;50.914;6.638;2023-03-14T08:03:04;98306.50;;;13.39;62.76
28344;BME280;15597;50.914;6.638;2023-03-14T08:05:30;98310.81;;;13.40;62.64
28344;BME280;15597;50.914;6.638;2023-03-14T08:07:55;98309.84;;;13.41;63.26
28344;BME280;15597;50.914;6.638;2023-03-14T08:10:21;98322.06;;;13.42;62.83
28344;BME280;15597;50.914;6.638;2023-03-14T08:12:55;98319.44;;;13.42;63.22
28344;BME280;15597;50.914;6.638;2023-03-14T08:15:22;98323.84;;;13.41;62.59
28344;BME280;15597;50.914;6.638;2023-03-14T08:17:47;98318.69;;;13.40;62.69
28344;BME280;15597;50.914;6.638;2023-03-14T08:20:27;98317.94;;;13.38;62.95
28344;BME280;15597;50.914;6.638;2023-03-14T08:22:57;98315.31;;;13.38;62.94
28344;BME280;15597;50.914;6.638;2023-03-14T08:25:24;98319.63;;;13.39;62.69
28344;BME280;15597;50.914;6.638;2023-03-14T08:27:50;98327.50;;;13.39;63.14
28344;BME280;15597;50.914;6.638;2023-03-14T08:30:17;98324.69;;;13.42;63.18
28344;BME280;15597;50.914;6.638;2023-03-14T08:32:43;98328.06;;;13.44;62.85
28344;BME280;15597;50.914;6.638;2023-03-14T08:35:10;98331.41;;;13.46;63.08
28344;BME280;15597;50.914;6.638;2023-03-14T08:37:35;98339.94;;;13.50;63.30
28344;BME280;15597;50.914;6.638;2023-03-14T08:40:02;98338.13;;;13.50;63.17
28344;BME280;15597;50.914;6.638;2023-03-14T08:42:32;98360.09;;;13.49;62.79
28344;BME280;15597;50.914;6.638;2023-03-14T08:44:58;98361.06;;;13.48;63.19
28344;BME280;15597;50.914;6.638;2023-03-14T08:47:24;98365.47;;;13.48;63.04
28344;BME280;15597;50.914;6.638;2023-03-14T08:49:49;98369.06;;;13.47;63.40
28344;BME280;15597;50.914;6.638;2023-03-14T08:52:15;98364.63;;;13.47;63.68
28344;BME280;15597;50.914;6.638;2023-03-14T08:54:43;98367.25;;;13.47;63.88
28344;BME280;15597;50.914;6.638;2023-03-14T08:57:09;98372.41;;;13.49;63.52
28344;BME280;15597;50.914;6.638;2023-03-14T08:59:35;98383.75;;;13.49;63.84
28344;BME280;15597;50.914;6.638;2023-03-14T09:02:00;98383.66;;;13.51;63.58
28344;BME280;15597;50.914;6.638;2023-03-14T09:04:32;98383.66;;;13.51;64.54
28344;BME280;15597;50.914;6.638;2023-03-14T09:06:58;98384.19;;;13.56;64.33
28344;BME280;15597;50.914;6.638;2023-03-14T09:09:27;98386.69;;;13.57;64.39
28344;BME280;15597;50.914;6.638;2023-03-14T09:11:53;98391.72;;;13.61;63.95
28344;BME280;15597;50.914;6.638;2023-03-14T09:14:18;98401.06;;;13.65;64.41
28344;BME280;15597;50.914;6.638;2023-03-14T09:16:44;98405.16;;;13.69;64.10
28344;BME280;15597;50.914;6.638;2023-03-14T09:19:10;98430.50;;;13.70;64.22
28344;BME280;15597;50.914;6.638;2023-03-14T09:21:35;98460.28;;;13.70;64.61
28344;BME280;15597;50.914;6.638;2023-03-14T09:24:02;98492.97;;;13.66;65.41
28344;BME280;15597;50.914;6.638;2023-03-14T09:26:28;98506.28;;;13.50;66.05
28344;BME280;15597;50.914;6.638;2023-03-14T09:28:53;98527.66;;;13.31;65.73
28344;BME280;15597;50.914;6.638;2023-03-14T09:31:19;98530.53;;;13.13;66.40
28344;BME280;15597;50.914;6.638;2023-03-14T09:33:44;98551.50;;;13.00;66.23
28344;BME280;15597;50.914;6.638;2023-03-14T09:36:10;98562.78;;;12.88;66.65
28344;BME280;15597;50.914;6.638;2023-03-14T09:38:36;98575.66;;;12.78;66.68
28344;BME280;15597;50.914;6.638;2023-03-14T09:41:25;98585.13;;;12.66;66.74
28344;BME280;15597;50.914;6.638;2023-03-14T09:44:00;98606.88;;;12.54;67.13
28344;BME280;15597;50.914;6.638;2023-03-14T09:46:29;98614.91;;;12.51;67.55
28344;BME280;15597;50.914;6.638;2023-03-14T09:48:55;98622.97;;;12.48;67.67
28344;BME280;15597;50.914;6.638;2023-03-14T09:51:21;98627.47;;;12.46;67.87
28344;BME280;15597;50.914;6.638;2023-03-14T09:53:49;98644.53;;;12.38;67.79
28344;BME280;15597;50.914;6.638;2023-03-14T09:56:30;98653.06;;;12.27;67.64
28344;BME280;15597;50.914;6.638;2023-03-14T09:59:02;98667.28;;;12.23;68.23
28344;BME280;15597;50.914;6.638;2023-03-14T10:01:31;98663.22;;;12.18;68.40
28344;BME280;15597;50.914;6.638;2023-03-14T10:04:00;98679.16;;;12.15;68.60
28344;BME280;15597;50.914;6.638;2023-03-14T10:06:29;98693.19;;;12.13;68.81
28344;BME280;15597;50.914;6.638;2023-03-14T10:08:55;98693.19;;;12.13;68.86
28344;BME280;15597;50.914;6.638;2023-03-14T10:11:23;98707.41;;;12.09;68.55
28344;BME280;15597;50.914;6.638;2023-03-14T10:14:01;98713.66;;;12.07;69.03
28344;BME280;15597;50.914;6.638;2023-03-14T10:16:30;98711.97;;;12.06;69.14
28344;BME280;15597;50.914;6.638;2023-03-14T10:19:06;98724.63;;;11.97;68.76
28344;BME280;15597;50.914;6.638;2023-03-14T10:21:38;98739.88;;;11.91;69.15
28344;BME280;15597;50.914;6.638;2023-03-14T10:26:43;98750.38;;;11.91;69.40
28344;BME280;15597;50.914;6.638;2023-03-14T10:29:12;98744.09;;;11.93;69.30
28344;BME280;15597;50.914;6.638;2023-03-14T10:34:30;98777.22;;;11.94;69.17
28344;BME280;15597;50.914;6.638;2023-03-14T10:37:06;98786.13;;;11.92;68.78
28344;BME280;15597;50.914;6.638;2023-03-14T10:39:52;98785.28;;;11.91;68.86
28344;BME280;15597;50.914;6.638;2023-03-14T10:42:25;98786.88;;;11.94;68.59
28344;BME280;15597;50.914;6.638;2023-03-14T10:45:06;98812.41;;;11.90;68.65
28344;BME280;15597;50.914;6.638;2023-03-14T10:47:35;98806.34;;;11.90;68.30
28344;BME280;15597;50.914;6.638;2023-03-14T10:52:49;98830.59;;;11.93;68.56
28344;BME280;15597;50.914;6.638;2023-03-14T10:55:16;98837.44;;;11.96;68.27
28344;BME280;15597;50.914;6.638;2023-03-14T10:57:42;98840.13;;;11.94;68.32
28344;BME280;15597;50.914;6.638;2023-03-14T11:00:14;98849.63;;;11.97;68.46
28344;BME280;15597;50.914;6.638;2023-03-14T11:03:08;98854.72;;;12.00;68.29
28344;BME280;15597;50.914;6.638;2023-03-14T11:05:43;98865.88;;;12.04;68.00
28344;BME280;15597;50.914;6.638;2023-03-14T11:08:23;98870.13;;;12.06;68.23
28344;BME280;15597;50.914;6.638;2023-03-14T11:11:15;98880.44;;;12.09;68.35
28344;BME280;15597;50.914;6.638;2023-03-14T11:16:22;98879.06;;;12.18;67.83
28344;BME280;15597;50.914;6.638;2023-03-14T11:19:03;98879.69;;;12.23;67.67
28344;BME280;15597;50.914;6.638;2023-03-14T11:21:37;98887.44;;;12.25;67.38
28344;BME280;15597;50.914;6.638;2023-03-14T11:27:06;98900.72;;;12.22;66.92
28344;BME280;15597;50.914;6.638;2023-03-14T11:32:10;98924.16;;;12.25;66.67
28344;BME280;15597;50.914;6.638;2023-03-14T11:34:53;98946.94;;;12.24;66.25
28344;BME280;15597;50.914;6.638;2023-03-14T11:37:44;98996.97;;;12.20;66.24
28344;BME280;15597;50.914;6.638;2023-03-14T11:40:18;98999.97;;;11.96;65.30
28344;BME280;15597;50.914;6.638;2023-03-14T11:42:52;99002.94;;;11.72;65.13
28344;BME280;15597;50.914;6.638;2023-03-14T11:45:25;99004.56;;;11.57;66.40
28344;BME280;15597;50.914;6.638;2023-03-14T11:48:04;98998.94;;;11.47;66.29
28344;BME280;15597;50.914;6.638;2023-03-14T11:50:33;99011.25;;;11.45;66.84
28344;BME280;15597;50.914;6.638;2023-03-14T11:53:05;99016.59;;;11.44;67.22
28344;BME280;15597;50.914;6.638;2023-03-14T11:55:37;99028.66;;;11.46;67.06
28344;BME280;15597;50.914;6.638;2023-03-14T11:58:25;99033.91;;;11.46;67.38
28344;BME280;15597;50.914;6.638;2023-03-14T12:00:54;99057.25;;;11.51;67.38
28344;BME280;15597;50.914;6.638;2023-03-14T12:03:35;99058.25;;;11.48;67.32
28344;BME280;15597;50.914;6.638;2023-03-14T12:06:17;99075.50;;;11.52;67.17
28344;BME280;15597;50.914;6.638;2023-03-14T12:09:18;99083.59;;;11.48;66.84
28344;BME280;15597;50.914;6.638;2023-03-14T12:11:52;99098.47;;;11.47;67.18
28344;BME280;15597;50.914;6.638;2023-03-14T12:14:25;99108.88;;;11.49;66.80
28344;BME280;15597;50.914;6.638;2023-03-14T12:16:57;99107.09;;;11.49;66.62
28344;BME280;15597;50.914;6.638;2023-03-14T12:21:56;99121.81;;;11.52;66.46
28344;BME280;15597;50.914;6.638;2023-03-14T12:24:25;99129.06;;;11.47;66.42
28344;BME280;15597;50.914;6.638;2023-03-14T12:26:55;99145.75;;;11.44;66.25
28344;BME280;15597;50.914;6.638;2023-03-14T12:29:21;99149.28;;;11.43;66.19
28344;BME280;15597;50.914;6.638;2023-03-14T12:31:49;99158.06;;;11.42;65.97
28344;BME280;15597;50.914;6.638;2023-03-14T12:39:38;99185.13;;;11.43;66.11
28344;BME280;15597;50.914;6.638;2023-03-14T12:44:50;99191.34;;;11.40;66.34
28344;BME280;15597;50.914;6.638;2023-03-14T12:49:42;99199.06;;;11.43;65.88
28344;BME280;15597;50.914;6.638;2023-03-14T12:55:06;99212.00;;;11.46;66.01
28344;BME280;15597;50.914;6.638;2023-03-14T12:57:42;99218.94;;;11.47;65.35
28344;BME280;15597;50.914;6.638;2023-03-14T13:00:20;99225.06;;;11.48;65.95
28344;BME280;15597;50.914;6.638;2023-03-14T13:02:47;99230.69;;;11.58;66.02
28344;BME280;15597;50.914;6.638;2023-03-14T13:05:23;99241.00;;;11.61;65.69
28344;BME280;15597;50.914;6.638;2023-03-14T13:13:15;99266.25;;;11.63;65.28
28344;BME280;15597;50.914;6.638;2023-03-14T13:15:43;99273.09;;;11.66;65.39
28344;BME280;15597;50.914;6.638;2023-03-14T13:18:16;99272.06;;;11.70;65.62
28344;BME280;15597;50.914;6.638;2023-03-14T13:20:50;99287.47;;;11.76;65.31
28344;BME280;15597;50.914;6.638;2023-03-14T13:23:31;99293.50;;;11.78;64.82
28344;BME280;15597;50.914;6.638;2023-03-14T13:25:58;99297.81;;;11.79;64.35
28344;BME280;15597;50.914;6.638;2023-03-14T13:28:24;99301.22;;;11.81;64.29
28344;BME280;15597;50.914;6.638;2023-03-14T13:30:55;99307.28;;;11.82;64.22
28344;BME280;15597;50.914;6.638;2023-03-14T13:33:22;99308.94;;;11.84;64.25
28344;BME280;15597;50.914;6.638;2023-03-14T13:36:00;99329.28;;;11.79;63.73
28344;BME280;15597;50.914;6.638;2023-03-14T13:38:30;99359.00;;;11.78;63.32
28344;BME280;15597;50.914;6.638;2023-03-14T13:40:56;99371.88;;;11.64;63.66
28344;BME280;15597;50.914;6.638;2023-03-14T13:43:36;99385.63;;;11.50;63.67
28344;BME280;15597;50.914;6.638;2023-03-14T13:46:20;99386.59;;;11.47;64.58
28344;BME280;15597;50.914;6.638;2023-03-14T13:48:58;99386.72;;;11.44;64.55
28344;BME280;15597;50.914;6.638;2023-03-14T13:51:25;99404.72;;;11.52;65.28
28344;BME280;15597;50.914;6.638;2023-03-14T13:53:55;99395.81;;;11.56;65.39
28344;BME280;15597;50.914;6.638;2023-03-14T13:56:23;99405.94;;;11.64;65.28
28344;BME280;15597;50.914;6.638;2023-03-14T13:58:50;99411.97;;;11.66;65.04
28344;BME280;15597;50.914;6.638;2023-03-14T14:01:21;99412.22;;;11.60;63.94